Time;durP1;ratioP1;P1;durP2;ratioP2;P2;SDS_P1;SDS_P2;PMS_P1;PMS_P2;Temp;Humidity;BMP_temperature;BMP_pressure;BME280_temperature;BME280_humidity;BME280_pressure;Samples;Min_cycle;Max_cycle;Signal;HPM_P1;HPM_P2
2020/12/15 00:01:32;;;;;;;5.30;3.33;;;;;;;4.37;83.28;98326.09;1634672;87;21198;-64
2020/12/15 00:04:00;;;;;;;7.55;3.45;;;;;;;4.35;83.62;98326.21;1634543;88;21162;-63
2020/12/15 00:06:34;;;;;;;5.90;2.98;;;;;;;4.39;83.41;98326.39;1634397;87;21253;-65
2020/12/15 00:09:03;;;;;;;5.15;2.90;;;;;;;4.34;83.42;98325.02;1634438;87;21200;-66
2020/12/15 00:11:31;;;;;;;4.37;2.60;;;;;;;4.36;83.15;98324.47;1634424;88;21658;-66
2020/12/15 00:13:59;;;;;;;3.08;1.82;;;;;;;4.32;83.54;98330.72;1634794;88;21193;-65
2020/12/15 00:16:27;;;;;;;14.50;2.65;;;;;;;4.29;83.50;98326.13;1634656;87;21624;-65
2020/12/15 00:18:56;;;;;;;5.83;3.60;;;;;;;4.29;83.55;98328.69;1634563;88;21218;-66
2020/12/15 00:21:26;;;;;;;4.15;2.20;;;;;;;4.27;83.54;98336.97;1634539;87;21197;-65
2020/12/15 00:23:55;;;;;;;4.53;2.30;;;;;;;4.30;83.44;98338.06;1634738;87;21763;-66
2020/12/15 00:26:24;;;;;;;2.83;2.22;;;;;;;4.30;83.68;98332.92;1634839;87;21222;-66
2020/12/15 00:28:52;;;;;;;5.83;2.02;;;;;;;4.33;83.52;98340.06;1634659;88;21721;-65
2020/12/15 00:31:20;;;;;;;3.87;2.83;;;;;;;4.35;83.49;98348.06;1634570;87;21181;-66
2020/12/15 00:33:48;;;;;;;5.62;3.52;;;;;;;4.34;83.51;98341.27;1634469;87;21197;-65
2020/12/15 00:36:18;;;;;;;3.10;2.67;;;;;;;4.37;83.28;98344.09;1634779;88;21256;-68
2020/12/15 00:38:47;;;;;;;2.40;1.42;;;;;;;4.38;83.31;98340.16;1634567;88;21197;-66
2020/12/15 00:41:15;;;;;;;2.62;1.50;;;;;;;4.39;83.06;98336.67;1634540;88;21249;-65
2020/12/15 00:43:43;;;;;;;3.05;1.90;;;;;;;4.43;82.58;98347.59;1634794;88;21174;-65
2020/12/15 00:46:18;;;;;;;3.30;1.95;;;;;;;4.43;82.68;98338.59;1634527;87;21193;-66
2020/12/15 00:48:47;;;;;;;5.55;2.30;;;;;;;4.44;82.73;98337.19;1634627;87;21654;-66
2020/12/15 00:51:20;;;;;;;2.98;1.77;;;;;;;4.46;82.59;98335.36;1634750;87;21193;-65
2020/12/15 00:53:49;;;;;;;2.50;2.10;;;;;;;4.47;82.40;98329.77;1634635;88;21170;-66
2020/12/15 00:56:19;;;;;;;3.42;2.60;;;;;;;4.44;82.25;98328.19;1634640;88;21181;-67
2020/12/15 00:58:47;;;;;;;3.05;2.25;;;;;;;4.43;82.03;98320.59;1634613;87;21222;-65
2020/12/15 01:01:16;;;;;;;2.80;2.05;;;;;;;4.43;81.94;98321.88;1634716;88;21644;-65
2020/12/15 01:03:44;;;;;;;3.83;1.98;;;;;;;4.43;82.05;98324.45;1635027;88;21185;-65
2020/12/15 01:06:14;;;;;;;5.40;2.42;;;;;;;4.40;82.26;98318.22;1634479;87;21692;-68
2020/12/15 01:08:43;;;;;;;3.95;2.33;;;;;;;4.34;82.23;98322.44;1634839;87;21186;-68
2020/12/15 01:11:13;;;;;;;3.87;1.95;;;;;;;4.41;82.18;98324.53;1634261;87;21278;-67
2020/12/15 01:13:42;;;;;;;2.40;1.77;;;;;;;4.36;82.36;98316.27;1634695;87;22452;-67
2020/12/15 01:16:11;;;;;;;4.25;2.65;;;;;;;4.47;82.14;98326.73;1634729;86;21165;-65
2020/12/15 01:18:42;;;;;;;6.10;2.92;;;;;;;4.51;82.14;98318.37;1644214;85;21185;-68
2020/12/15 01:21:13;;;;;;;2.98;1.62;;;;;;;4.40;82.52;98312.59;1643851;86;21185;-67
2020/12/15 01:23:44;;;;;;;3.45;2.30;;;;;;;4.50;82.28;98313.68;1641948;87;21197;-67
2020/12/15 01:28:45;;;;;;;2.98;1.85;;;;;;;4.47;82.38;98309.19;1850369;77;22350;-65
2020/12/15 01:31:14;;;;;;;6.25;2.42;;;;;;;4.46;82.15;98321.67;1827656;77;21323;-65
2020/12/15 01:33:44;;;;;;;4.37;2.12;;;;;;;4.47;82.22;98318.19;1825742;77;21538;-65
2020/12/15 01:36:32;;;;;;;5.20;3.25;;;;;;;4.53;82.19;98318.63;1826700;77;21335;-65
2020/12/15 01:39:02;;;;;;;5.53;2.87;;;;;;;4.53;81.90;98317.34;1826640;77;21561;-64
2020/12/15 01:41:51;;;;;;;6.35;3.02;;;;;;;4.48;82.00;98315.50;1687504;84;21228;-64
2020/12/15 01:44:20;;;;;;;5.70;2.92;;;;;;;4.43;82.13;98314.99;1692083;84;21196;-64
2020/12/15 01:46:51;;;;;;;6.85;2.92;;;;;;;4.37;82.48;98315.36;1692118;84;21608;-64
2020/12/15 01:49:21;;;;;;;5.65;2.87;;;;;;;4.29;82.66;98304.27;1691924;84;21561;-64
2020/12/15 01:51:58;;;;;;;9.58;3.25;;;;;;;4.36;82.56;98313.70;1692024;84;21144;-64
2020/12/15 01:54:28;;;;;;;6.78;2.95;;;;;;;4.29;82.70;98307.30;1691390;84;21175;-64
2020/12/15 01:56:57;;;;;;;5.67;3.52;;;;;;;4.23;82.94;98308.52;1692143;84;21612;-64
2020/12/15 01:59:28;;;;;;;6.15;2.92;;;;;;;4.17;83.07;98306.31;1689602;84;21627;-65
2020/12/15 02:01:58;;;;;;;4.00;2.70;;;;;;;4.19;83.03;98303.66;1692299;84;21195;-67
2020/12/15 02:04:27;;;;;;;4.15;2.83;;;;;;;4.15;83.40;98306.05;1680587;84;21605;-67
2020/12/15 02:06:58;;;;;;;8.73;3.75;;;;;;;4.14;83.38;98301.81;1690555;84;21184;-67
2020/12/15 02:09:27;;;;;;;5.87;2.92;;;;;;;4.17;83.11;98310.16;1692034;84;21178;-67
2020/12/15 02:11:57;;;;;;;7.80;2.95;;;;;;;4.19;83.06;98307.51;1689033;84;21183;-67
2020/12/15 02:14:26;;;;;;;4.75;2.62;;;;;;;4.21;83.04;98309.51;1692267;84;21180;-65
2020/12/15 02:16:55;;;;;;;5.78;2.77;;;;;;;4.20;83.25;98313.83;1664934;85;21184;-66
2020/12/15 02:19:25;;;;;;;5.78;2.67;;;;;;;4.15;83.40;98314.59;1689620;84;21183;-67
2020/12/15 02:22:00;;;;;;;5.00;2.72;;;;;;;4.01;84.09;98309.45;1692111;84;21148;-67
2020/12/15 02:24:29;;;;;;;8.73;3.67;;;;;;;4.06;83.88;98322.02;1692017;84;21156;-67
2020/12/15 02:26:59;;;;;;;3.52;2.65;;;;;;;4.05;83.73;98319.91;1690547;84;21136;-68
2020/12/15 02:29:29;;;;;;;5.85;2.72;;;;;;;4.06;83.70;98325.42;1691285;84;21120;-66
2020/12/15 02:31:59;;;;;;;7.35;3.75;;;;;;;4.05;83.90;98324.22;1691996;84;21140;-65
2020/12/15 02:34:29;;;;;;;5.97;3.70;;;;;;;4.09;83.73;98325.68;1692130;84;21179;-65
2020/12/15 02:36:57;;;;;;;8.45;5.42;;;;;;;4.13;83.49;98330.55;1692020;84;21188;-66
2020/12/15 02:39:26;;;;;;;8.48;4.67;;;;;;;4.16;83.47;98331.64;1688240;84;21172;-65
2020/12/15 02:42:10;;;;;;;9.65;4.00;;;;;;;4.16;83.58;98332.13;1639071;84;21176;-65
2020/12/15 02:44:38;;;;;;;3.65;2.15;;;;;;;4.07;83.96;98329.65;1664749;85;21200;-66
2020/12/15 02:47:08;;;;;;;4.83;2.70;;;;;;;4.09;83.94;98329.08;1690103;84;21302;-66
2020/12/15 02:49:38;;;;;;;4.55;3.10;;;;;;;4.13;83.68;98333.57;1690447;85;21317;-63
2020/12/15 02:52:07;;;;;;;7.35;4.37;;;;;;;4.16;83.60;98335.98;1690517;85;21171;-64
2020/12/15 02:54:37;;;;;;;9.95;4.30;;;;;;;4.17;83.75;98335.04;1690397;85;21167;-64
2020/12/15 02:57:06;;;;;;;5.90;3.37;;;;;;;4.18;83.57;98338.81;1690545;85;21219;-65
2020/12/15 02:59:35;;;;;;;6.47;2.67;;;;;;;4.21;83.45;98336.50;1690344;85;21137;-65
2020/12/15 03:02:04;;;;;;;8.00;4.20;;;;;;;4.25;83.31;98338.80;1690276;85;21236;-65
2020/12/15 03:04:33;;;;;;;5.37;2.90;;;;;;;4.21;83.41;98339.90;1690322;84;21739;-65
2020/12/15 03:07:05;;;;;;;7.10;2.72;;;;;;;4.25;83.39;98346.51;1690184;84;21290;-64
2020/12/15 03:09:35;;;;;;;4.85;2.70;;;;;;;4.26;83.30;98345.59;1689069;85;21309;-64
2020/12/15 03:12:08;;;;;;;4.75;2.90;;;;;;;4.27;83.26;98345.97;1688933;85;21164;-64
2020/12/15 03:14:39;;;;;;;5.78;2.77;;;;;;;4.29;83.21;98348.42;1689722;85;21172;-65
2020/12/15 03:17:09;;;;;;;6.92;2.80;;;;;;;4.29;83.14;98351.83;1690697;85;21180;-64
2020/12/15 03:19:37;;;;;;;7.12;3.00;;;;;;;4.30;83.04;98347.06;1690363;84;21362;-65
2020/12/15 03:22:07;;;;;;;5.22;3.02;;;;;;;4.32;82.86;98353.86;1690512;85;21200;-64
2020/12/15 03:24:37;;;;;;;3.35;1.90;;;;;;;4.32;82.88;98357.72;1690241;84;21373;-65
2020/12/15 03:27:06;;;;;;;3.52;1.85;;;;;;;4.34;82.75;98358.44;1690686;84;21152;-64
2020/12/15 03:29:35;;;;;;;3.33;1.98;;;;;;;4.35;82.71;98359.64;1690419;85;21699;-65
2020/12/15 03:32:04;;;;;;;5.10;2.70;;;;;;;4.38;82.75;98360.73;1690307;85;21298;-66
2020/12/15 03:34:33;;;;;;;3.20;2.22;;;;;;;4.43;82.76;98360.45;1690766;85;21187;-65
2020/12/15 03:37:02;;;;;;;3.05;1.85;;;;;;;4.45;82.62;98360.70;1690215;85;21192;-66
2020/12/15 03:39:31;;;;;;;5.15;2.37;;;;;;;4.45;82.62;98363.73;1664709;85;21573;-65
2020/12/15 03:42:01;;;;;;;3.85;2.62;;;;;;;4.37;82.91;98365.95;1672763;85;21219;-66
2020/12/15 03:44:30;;;;;;;3.15;2.17;;;;;;;4.40;82.91;98365.30;1642203;85;21175;-65
2020/12/15 03:46:59;;;;;;;5.42;2.87;;;;;;;4.34;83.19;98370.00;1667030;85;21199;-63
2020/12/15 03:49:27;;;;;;;2.98;2.27;;;;;;;4.28;83.51;98368.63;1641919;85;21188;-63
2020/12/15 03:51:57;;;;;;;4.58;2.58;;;;;;;4.30;83.15;98366.34;1668722;84;21595;-65
2020/12/15 03:54:35;;;;;;;4.33;2.33;;;;;;;4.35;82.89;98371.20;1667566;85;21196;-65
2020/12/15 03:57:06;;;;;;;4.97;2.75;;;;;;;4.40;82.88;98375.58;1655586;85;21625;-66
2020/12/15 03:59:36;;;;;;;3.17;2.02;;;;;;;4.36;82.29;98379.75;1667864;85;21156;-70
2020/12/15 04:02:04;;;;;;;2.83;1.87;;;;;;;4.44;82.25;98376.22;1669139;85;21163;-65
2020/12/15 04:04:33;;;;;;;2.87;1.47;;;;;;;4.51;82.17;98374.49;1669058;85;21803;-65
2020/12/15 04:07:01;;;;;;;2.85;2.08;;;;;;;4.61;82.17;98378.59;1668890;85;21212;-68
2020/12/15 04:09:32;;;;;;;3.42;2.00;;;;;;;4.70;81.87;98381.88;1668793;85;21251;-66
2020/12/15 04:12:01;;;;;;;3.40;2.15;;;;;;;4.74;80.91;98379.03;1669671;85;21168;-66
2020/12/15 04:14:30;;;;;;;3.33;2.20;;;;;;;4.78;80.70;98382.23;1669817;85;21644;-68
2020/12/15 04:16:59;;;;;;;1.90;1.40;;;;;;;4.82;80.62;98389.29;1669184;85;21180;-65
2020/12/15 04:19:26;;;;;;;2.58;1.85;;;;;;;4.89;80.49;98395.23;1668774;85;21714;-66
2020/12/15 04:21:56;;;;;;;3.30;1.52;;;;;;;4.93;80.46;98388.14;1668874;85;21195;-64
2020/12/15 04:24:26;;;;;;;3.75;2.35;;;;;;;4.97;79.93;98390.44;1667594;85;21164;-63
2020/12/15 04:26:57;;;;;;;4.67;2.55;;;;;;;5.01;79.71;98388.48;1668523;85;21604;-64
2020/12/15 04:29:26;;;;;;;2.50;1.60;;;;;;;5.04;79.63;98384.42;1668542;85;21313;-66
2020/12/15 04:31:59;;;;;;;4.65;2.37;;;;;;;5.04;79.46;98386.55;1666979;85;21188;-63
2020/12/15 04:34:27;;;;;;;7.50;3.47;;;;;;;5.06;79.45;98383.84;1668639;85;21191;-63
2020/12/15 04:36:57;;;;;;;5.92;2.77;;;;;;;5.05;78.71;98388.20;1668726;85;21168;-66
2020/12/15 04:39:27;;;;;;;2.92;1.95;;;;;;;5.04;78.34;98392.98;1667428;85;21184;-64
2020/12/15 04:41:58;;;;;;;4.08;2.45;;;;;;;5.02;78.69;98385.00;1687429;84;21155;-64
2020/12/15 04:44:26;;;;;;;3.62;2.00;;;;;;;4.99;78.50;98391.61;1671386;84;21148;-65
2020/12/15 04:47:18;;;;;;;4.62;2.20;;;;;;;4.95;78.65;98393.55;1671906;84;21616;-65
2020/12/15 04:50:11;;;;;;;5.47;3.05;;;;;;;4.94;78.76;98402.19;1696453;84;21719;-65
2020/12/15 04:52:58;;;;;;;3.75;2.17;;;;;;;4.91;78.64;98398.52;1690156;84;21212;-69
2020/12/15 04:55:37;;;;;;;4.05;2.40;;;;;;;4.84;78.51;98399.02;1693725;84;21733;-66
2020/12/15 04:58:07;;;;;;;3.80;2.10;;;;;;;4.72;78.77;98407.03;1697521;84;21353;-65
2020/12/15 05:00:35;;;;;;;2.15;1.27;;;;;;;4.68;78.94;98408.14;1697482;84;21175;-65
2020/12/15 05:03:14;;;;;;;3.52;1.57;;;;;;;4.68;79.05;98409.44;1697026;84;21164;-66
2020/12/15 05:05:45;;;;;;;3.12;2.15;;;;;;;4.66;78.98;98413.41;1697675;84;21175;-65
2020/12/15 05:08:15;;;;;;;5.42;2.22;;;;;;;4.65;78.66;98417.34;1697687;84;21207;-66
2020/12/15 05:10:51;;;;;;;4.15;2.92;;;;;;;4.63;78.98;98419.20;1697122;84;21152;-66
2020/12/15 05:13:32;;;;;;;8.90;2.58;;;;;;;4.64;79.31;98419.55;1823777;77;24576;-67
2020/12/15 05:16:13;;;;;;;5.75;3.37;;;;;;;4.56;79.41;98430.77;1633494;86;21185;-67
2020/12/15 05:18:49;;;;;;;3.08;1.82;;;;;;;4.54;79.46;98427.47;1698177;84;21160;-66
2020/12/15 05:21:19;;;;;;;6.72;2.15;;;;;;;4.54;79.37;98432.16;1659354;86;21238;-66
2020/12/15 05:23:55;;;;;;;4.30;2.62;;;;;;;4.52;79.34;98426.27;1697811;84;21203;-66
2020/12/15 05:26:25;;;;;;;6.62;2.83;;;;;;;4.51;79.51;98430.23;1697965;84;21155;-67
2020/12/15 05:29:08;;;;;;;5.55;2.85;;;;;;;4.51;79.52;98431.53;1658367;86;21206;-67
2020/12/15 05:31:41;;;;;;;5.60;2.20;;;;;;;4.43;79.45;98431.99;1656363;86;21203;-67
2020/12/15 05:34:26;;;;;;;6.53;3.00;;;;;;;4.51;79.55;98432.36;1827620;77;23108;-67
2020/12/15 05:37:13;;;;;;;6.08;3.33;;;;;;;4.46;79.89;98439.52;1823702;77;21127;-66
2020/12/15 05:40:04;;;;;;;5.17;3.60;;;;;;;4.49;80.17;98436.75;1829751;76;22933;-68
2020/12/15 05:42:41;;;;;;;7.67;3.65;;;;;;;4.39;80.62;98442.55;1755368;80;21163;-67
2020/12/15 05:45:13;;;;;;;5.00;3.15;;;;;;;4.30;80.90;98444.76;1775708;80;21309;-66
2020/12/15 05:47:41;;;;;;;5.10;3.12;;;;;;;4.32;80.81;98444.64;1756001;80;21143;-67
2020/12/15 05:50:10;;;;;;;4.87;2.95;;;;;;;4.29;80.30;98446.95;1760866;80;21136;-65
2020/12/15 05:52:38;;;;;;;3.77;2.60;;;;;;;4.38;80.06;98453.75;1766782;80;21212;-65
2020/12/15 05:55:08;;;;;;;3.62;1.95;;;;;;;4.41;80.06;98450.98;1734196;80;21171;-67
2020/12/15 05:57:36;;;;;;;4.22;1.87;;;;;;;4.43;79.11;98462.02;1767188;80;21133;-65
2020/12/15 06:00:10;;;;;;;3.67;2.05;;;;;;;4.43;78.64;98460.28;1769034;80;21105;-65
2020/12/15 06:02:43;;;;;;;3.33;1.72;;;;;;;4.40;78.69;98463.02;1768876;80;21144;-65
2020/12/15 06:05:11;;;;;;;3.37;1.95;;;;;;;4.43;78.90;98460.28;1761961;80;21171;-65
2020/12/15 06:07:44;;;;;;;2.98;1.77;;;;;;;4.47;78.77;98460.92;1759732;80;21651;-66
2020/12/15 06:10:12;;;;;;;6.22;2.67;;;;;;;4.48;78.69;98465.12;1768443;80;21703;-66
2020/12/15 06:12:40;;;;;;;7.22;2.98;;;;;;;4.37;79.83;98469.63;1758850;80;21199;-66
2020/12/15 06:15:08;;;;;;;5.42;2.55;;;;;;;4.40;80.56;98468.64;1769850;80;21163;-65
2020/12/15 06:17:36;;;;;;;7.83;2.95;;;;;;;4.44;80.21;98470.08;1764298;80;21285;-65
2020/12/15 06:20:04;;;;;;;4.78;2.40;;;;;;;4.45;80.46;98471.28;1760578;80;21317;-65
2020/12/15 06:22:35;;;;;;;5.87;3.15;;;;;;;4.46;80.35;98474.69;1760144;80;21204;-65
2020/12/15 06:25:04;;;;;;;8.63;3.62;;;;;;;4.43;80.45;98477.45;1739282;81;21110;-65
2020/12/15 06:27:36;;;;;;;7.40;3.65;;;;;;;4.43;80.65;98479.56;1739552;81;21169;-65
2020/12/15 06:30:07;;;;;;;4.67;2.50;;;;;;;4.40;81.45;98486.64;1739271;82;21149;-65
2020/12/15 06:32:35;;;;;;;7.40;3.80;;;;;;;4.43;81.08;98486.00;1739390;81;21173;-66
2020/12/15 06:35:11;;;;;;;6.47;3.20;;;;;;;4.41;81.35;98484.41;1739159;82;21275;-65
2020/12/15 06:37:43;;;;;;;4.53;3.10;;;;;;;4.40;81.29;98487.44;1734105;82;21169;-65
2020/12/15 06:40:10;;;;;;;7.92;3.30;;;;;;;4.45;80.55;98489.74;1734117;82;21221;-65
2020/12/15 06:42:44;;;;;;;3.95;2.75;;;;;;;4.41;81.05;98490.84;1733891;82;21208;-65
2020/12/15 06:45:12;;;;;;;4.17;2.87;;;;;;;4.43;80.74;98492.87;1733391;82;21217;-66
2020/12/15 06:47:41;;;;;;;3.90;2.15;;;;;;;4.48;80.71;98494.70;1708413;83;21216;-65
2020/12/15 06:50:18;;;;;;;3.33;2.15;;;;;;;4.49;80.79;98492.05;1734187;82;21177;-65
2020/12/15 06:52:46;;;;;;;6.42;3.37;;;;;;;4.53;80.66;98494.80;1733525;82;21303;-65
2020/12/15 06:55:14;;;;;;;2.98;1.92;;;;;;;4.54;80.65;98489.20;1733623;82;21219;-65
2020/12/15 06:57:43;;;;;;;9.00;2.45;;;;;;;4.56;80.42;98492.03;1725765;83;21199;-64
2020/12/15 07:00:12;;;;;;;4.00;2.45;;;;;;;4.60;80.42;98492.67;1725661;82;21163;-65
2020/12/15 07:02:46;;;;;;;3.47;2.87;;;;;;;4.63;80.44;98497.17;1725555;83;21236;-64
2020/12/15 07:05:28;;;;;;;6.00;2.33;;;;;;;4.66;80.02;98498.30;1724519;82;21164;-65
2020/12/15 07:08:00;;;;;;;3.15;2.25;;;;;;;4.70;79.69;98497.65;1725460;82;21622;-65
2020/12/15 07:10:29;;;;;;;8.73;5.17;;;;;;;4.72;79.18;98497.91;1725021;82;21631;-64
2020/12/15 07:15:42;;;;;;;5.95;3.12;;;;;;;4.69;79.90;98501.13;1807843;77;22771;-66
2020/12/15 07:18:10;;;;;;;4.05;2.00;;;;;;;4.70;79.72;98507.48;1794805;80;21195;-66
2020/12/15 07:20:38;;;;;;;3.95;3.00;;;;;;;4.73;79.52;98509.03;1760122;81;21181;-66
2020/12/15 07:23:06;;;;;;;4.47;1.62;;;;;;;4.70;79.54;98506.66;1739498;82;21220;-65
2020/12/15 07:25:34;;;;;;;3.15;2.62;;;;;;;4.75;79.41;98508.01;1739406;82;21311;-66
2020/12/15 07:28:03;;;;;;;5.45;2.80;;;;;;;4.74;79.53;98497.83;1739146;82;21335;-67
2020/12/15 07:30:37;;;;;;;9.65;6.62;;;;;;;4.71;79.43;98499.28;1739542;82;21597;-63
2020/12/15 07:33:05;;;;;;;14.87;4.25;;;;;;;4.74;79.95;98493.97;1739099;82;21231;-63
2020/12/15 07:35:34;;;;;;;7.75;2.77;;;;;;;4.70;80.49;98504.08;1738957;82;21342;-63
2020/12/15 07:38:14;;;;;;;9.83;3.72;;;;;;;4.60;80.04;98501.22;1770627;81;21155;-63
2020/12/15 07:40:43;;;;;;;6.80;2.92;;;;;;;4.66;78.69;98505.19;1772318;81;21155;-63
2020/12/15 07:43:11;;;;;;;3.75;2.58;;;;;;;4.67;78.75;98504.23;1742482;81;21228;-64
2020/12/15 07:45:39;;;;;;;3.80;2.12;;;;;;;4.80;79.34;98503.88;1742825;81;21201;-66
2020/12/15 07:48:07;;;;;;;3.12;2.08;;;;;;;4.80;78.57;98505.16;1743204;81;21138;-66
2020/12/15 07:50:51;;;;;;;4.72;2.70;;;;;;;4.86;78.48;98502.69;1685633;84;21199;-66
2020/12/15 07:53:19;;;;;;;4.45;3.30;;;;;;;4.74;78.15;98510.70;1685731;84;21151;-65
2020/12/15 07:55:47;;;;;;;10.90;3.52;;;;;;;4.83;78.08;98506.25;1685815;84;21194;-66
2020/12/15 07:58:16;;;;;;;8.28;3.62;;;;;;;4.75;78.55;98504.15;1685778;84;21302;-65
2020/12/15 08:00:46;;;;;;;5.58;2.77;;;;;;;4.82;78.46;98504.63;1684840;84;21209;-66
2020/12/15 08:03:18;;;;;;;9.78;3.50;;;;;;;4.82;78.63;98502.51;1685403;84;21208;-66
2020/12/15 08:05:46;;;;;;;4.72;3.22;;;;;;;4.82;78.33;98502.51;1685658;84;21208;-71
2020/12/15 08:08:15;;;;;;;7.10;4.03;;;;;;;4.81;78.44;98505.99;1685654;84;21205;-66
2020/12/15 08:10:43;;;;;;;4.00;3.05;;;;;;;4.71;78.24;98505.71;1686009;84;21256;-66
2020/12/15 08:13:11;;;;;;;5.72;3.17;;;;;;;4.79;78.19;98509.94;1686078;84;21181;-66
2020/12/15 08:15:41;;;;;;;7.33;4.28;;;;;;;4.73;78.46;98509.03;1685612;84;21192;-66
2020/12/15 08:18:11;;;;;;;14.70;7.33;;;;;;;4.80;78.40;98519.31;1685724;84;21243;-65
2020/12/15 08:20:42;;;;;;;11.80;5.80;;;;;;;4.82;78.10;98515.37;1685863;84;21208;-66
2020/12/15 08:23:13;;;;;;;10.58;3.30;;;;;;;4.77;78.13;98513.91;1685641;84;21213;-65
2020/12/15 08:25:45;;;;;;;13.22;3.60;;;;;;;4.75;78.42;98518.76;1685345;84;21695;-66
2020/12/15 08:28:22;;;;;;;10.78;3.92;;;;;;;4.65;78.32;98514.64;1685099;84;21241;-66
2020/12/15 08:30:57;;;;;;;4.85;3.22;;;;;;;4.61;78.29;98520.06;1685236;84;21193;-66
2020/12/15 08:33:30;;;;;;;6.45;3.08;;;;;;;4.69;77.89;98519.14;1685329;84;21157;-66
2020/12/15 08:36:00;;;;;;;5.25;2.75;;;;;;;4.64;77.94;98519.41;1685083;84;21259;-66
2020/12/15 08:38:29;;;;;;;5.20;3.10;;;;;;;4.64;78.84;98513.44;1685018;84;21218;-66
2020/12/15 08:41:05;;;;;;;8.03;4.75;;;;;;;4.62;78.48;98516.58;1685057;84;21202;-66
2020/12/15 08:43:33;;;;;;;7.22;3.87;;;;;;;4.62;78.84;98516.13;1685531;84;21180;-66
2020/12/15 08:46:02;;;;;;;17.42;10.78;;;;;;;4.56;78.64;98513.90;1685464;84;21256;-66
2020/12/15 08:48:36;;;;;;;6.10;3.42;;;;;;;4.65;78.59;98517.22;1684917;84;21217;-66
2020/12/15 08:51:13;;;;;;;7.60;3.65;;;;;;;4.70;78.52;98515.66;1670701;85;21229;-66
2020/12/15 08:53:43;;;;;;;4.45;2.58;;;;;;;4.70;78.81;98514.37;1670466;85;21197;-66
2020/12/15 08:56:35;;;;;;;2.87;1.85;;;;;;;4.73;78.45;98511.61;1670485;85;21852;-66
2020/12/15 08:59:16;;;;;;;2.90;1.62;;;;;;;4.71;77.88;98505.71;1620376;87;21186;-66
2020/12/15 09:01:46;;;;;;;4.17;2.15;;;;;;;4.69;77.49;98504.98;1620450;87;21249;-66
2020/12/15 09:04:26;;;;;;;3.90;2.25;;;;;;;4.69;77.68;98503.70;1620223;87;21202;-65
2020/12/15 09:06:55;;;;;;;7.78;3.80;;;;;;;4.68;78.21;98504.61;1619953;87;21202;-67
2020/12/15 09:09:32;;;;;;;4.50;2.62;;;;;;;4.65;77.72;98498.38;1620070;87;21202;-67
2020/12/15 09:12:01;;;;;;;6.30;3.12;;;;;;;4.57;77.56;98500.58;1620080;87;21211;-67
2020/12/15 09:14:30;;;;;;;3.90;2.50;;;;;;;4.65;77.42;98507.37;1620185;87;21163;-67
2020/12/15 09:19:41;;;;;;;5.67;2.77;;;;;;;4.67;77.99;98499.09;1663828;86;21528;-67
2020/12/15 09:22:14;;;;;;;7.25;2.83;;;;;;;4.72;77.73;98499.20;1664468;85;21231;-66
2020/12/15 09:24:44;;;;;;;6.30;2.60;;;;;;;4.73;77.54;98500.03;1664837;86;21193;-66
2020/12/15 09:27:24;;;;;;;5.62;3.40;;;;;;;4.80;77.39;98500.02;1665081;85;21244;-67
2020/12/15 09:29:57;;;;;;;8.70;3.05;;;;;;;4.73;77.14;98495.72;1664634;86;21227;-66
2020/12/15 09:32:50;;;;;;;7.42;4.78;;;;;;;4.85;76.78;98490.73;1664747;85;21187;-66
2020/12/15 09:35:19;;;;;;;6.95;3.02;;;;;;;4.83;76.98;98489.53;1640727;87;21194;-68
2020/12/15 09:37:51;;;;;;;6.97;3.02;;;;;;;4.94;77.03;98487.11;1615294;87;21169;-66
2020/12/15 09:40:20;;;;;;;3.98;2.22;;;;;;;4.94;76.72;98480.68;1631399;87;21193;-66
2020/12/15 09:42:58;;;;;;;5.08;2.50;;;;;;;4.95;76.47;98473.33;1636564;87;21158;-66
2020/12/15 09:45:27;;;;;;;5.47;3.00;;;;;;;4.93;76.22;98472.62;1631608;88;21612;-66
2020/12/15 09:48:09;;;;;;;6.92;2.75;;;;;;;5.00;76.57;98470.48;1779864;79;23022;-66
2020/12/15 09:50:42;;;;;;;4.65;2.35;;;;;;;4.98;76.44;98480.06;1753821;81;21545;-66
2020/12/15 09:53:18;;;;;;;6.55;2.75;;;;;;;4.97;76.53;98468.94;1753998;81;21202;-66
2020/12/15 09:55:53;;;;;;;7.17;3.65;;;;;;;5.04;76.79;98470.20;1753885;81;21159;-66
2020/12/15 09:58:23;;;;;;;14.73;3.15;;;;;;;4.90;76.67;98445.80;1750912;80;21153;-66
2020/12/15 10:01:05;;;;;;;5.70;3.12;;;;;;;4.98;77.00;98471.05;1720385;81;21212;-68
2020/12/15 10:03:39;;;;;;;5.90;2.98;;;;;;;5.08;76.57;98474.23;1739412;82;21197;-68
2020/12/15 10:06:12;;;;;;;5.05;3.58;;;;;;;5.05;76.69;98471.03;1721778;82;21247;-67
2020/12/15 10:08:47;;;;;;;7.97;4.20;;;;;;;5.08;76.46;98469.54;1739120;82;21174;-66
2020/12/15 10:11:17;;;;;;;8.83;4.17;;;;;;;5.12;76.77;98469.26;1719233;82;21174;-66
2020/12/15 10:14:09;;;;;;;3.30;2.05;;;;;;;5.12;76.76;98471.00;1723046;82;21205;-67
2020/12/15 10:16:42;;;;;;;3.87;2.55;;;;;;;5.19;76.82;98469.23;1720520;82;21174;-66
2020/12/15 10:19:13;;;;;;;8.28;3.70;;;;;;;5.28;76.80;98472.15;1719462;82;21134;-66
2020/12/15 10:21:49;;;;;;;2.33;2.00;;;;;;;5.23;76.59;98465.54;1717042;82;21164;-66
2020/12/15 10:24:24;;;;;;;8.30;3.60;;;;;;;5.30;76.02;98467.71;1724272;82;21192;-66
2020/12/15 10:27:17;;;;;;;3.22;1.75;;;;;;;5.35;75.50;98463.10;1751583;81;21129;-67
2020/12/15 10:29:50;;;;;;;3.58;2.12;;;;;;;5.45;75.91;98459.83;1751936;82;21152;-67
2020/12/15 10:32:34;;;;;;;3.10;1.90;;;;;;;5.47;75.10;98455.88;1751937;81;21157;-67
2020/12/15 10:35:07;;;;;;;4.60;2.72;;;;;;;5.40;75.35;98452.05;1751629;81;21593;-67
2020/12/15 10:38:05;;;;;;;4.08;1.80;;;;;;;5.41;75.82;98451.14;1731457;82;21192;-67
2020/12/15 10:40:41;;;;;;;6.10;2.80;;;;;;;5.47;75.14;98448.98;1726725;82;21184;-67
2020/12/15 10:43:12;;;;;;;3.72;2.58;;;;;;;5.45;75.70;98448.70;1751837;82;21156;-67
2020/12/15 10:45:53;;;;;;;3.85;1.98;;;;;;;5.57;74.64;98447.91;1727326;82;21147;-67
2020/12/15 10:48:24;;;;;;;2.72;1.82;;;;;;;5.74;74.45;98448.94;1720786;82;21210;-67
2020/12/15 10:50:58;;;;;;;4.33;2.58;;;;;;;5.69;74.08;98440.67;1751336;82;21157;-67
2020/12/15 10:53:34;;;;;;;6.10;2.87;;;;;;;5.83;74.20;98444.47;1749041;80;21160;-67
2020/12/15 10:56:07;;;;;;;1.65;1.35;;;;;;;5.72;74.59;98446.44;1751523;81;21207;-67
2020/12/15 10:58:37;;;;;;;3.47;2.08;;;;;;;5.86;73.94;98446.87;1751305;82;21212;-67
2020/12/15 11:01:11;;;;;;;4.97;2.85;;;;;;;5.89;74.12;98447.95;1751029;80;21295;-67
2020/12/15 11:03:49;;;;;;;8.23;3.08;;;;;;;5.98;73.47;98452.51;1747411;82;21148;-67
2020/12/15 11:06:24;;;;;;;4.28;2.67;;;;;;;5.95;73.63;98448.81;1724506;82;21167;-67
2020/12/15 11:08:56;;;;;;;3.98;2.30;;;;;;;6.01;73.59;98449.72;1748224;80;21817;-66
2020/12/15 11:11:26;;;;;;;5.53;2.40;;;;;;;6.00;73.12;98451.92;1730832;81;21604;-66
2020/12/15 11:13:59;;;;;;;6.03;2.27;;;;;;;6.01;73.17;98447.14;1721293;83;21239;-66
2020/12/15 11:16:30;;;;;;;5.17;3.45;;;;;;;5.97;73.26;98449.55;1718489;83;21157;-71
2020/12/15 11:18:59;;;;;;;4.83;2.87;;;;;;;5.88;72.88;98448.88;1721558;83;21247;-66
2020/12/15 11:21:32;;;;;;;4.28;2.65;;;;;;;5.84;72.92;98446.10;1711560;83;21105;-69
2020/12/15 11:24:02;;;;;;;5.17;2.62;;;;;;;5.76;72.53;98441.91;1687602;84;21145;-66
2020/12/15 11:26:30;;;;;;;6.55;2.75;;;;;;;5.84;72.93;98444.81;1708060;84;21681;-66
2020/12/15 11:28:59;;;;;;;9.20;3.72;;;;;;;5.89;73.43;98444.09;1707932;84;21153;-66
2020/12/15 11:31:28;;;;;;;13.13;4.00;;;;;;;5.82;73.84;98445.85;1708059;84;21538;-66
2020/12/15 11:34:10;;;;;;;7.00;3.75;;;;;;;5.69;73.71;98441.95;1662781;85;21208;-66
2020/12/15 11:36:39;;;;;;;8.15;4.72;;;;;;;5.60;74.15;98442.58;1648922;86;21140;-65
2020/12/15 11:39:09;;;;;;;7.95;4.35;;;;;;;5.61;74.91;98440.34;1649537;85;21426;-65
2020/12/15 11:41:39;;;;;;;7.05;3.27;;;;;;;5.61;74.19;98441.17;1657120;86;21184;-66
2020/12/15 11:44:08;;;;;;;6.67;3.12;;;;;;;5.56;74.40;98436.77;1664318;85;21747;-65
2020/12/15 11:46:37;;;;;;;5.17;3.22;;;;;;;5.55;74.96;98444.16;1664130;86;21636;-65
2020/12/15 11:49:05;;;;;;;5.15;3.00;;;;;;;5.60;74.80;98435.65;1664236;86;21331;-66
2020/12/15 11:51:34;;;;;;;15.20;8.75;;;;;;;5.59;74.91;98437.06;1664294;86;21172;-65
2020/12/15 11:54:03;;;;;;;9.90;3.25;;;;;;;5.56;75.51;98439.84;1664234;86;21260;-66
2020/12/15 11:56:31;;;;;;;7.53;3.45;;;;;;;5.60;75.16;98442.58;1664309;86;21730;-65
2020/12/15 11:59:01;;;;;;;8.48;2.67;;;;;;;5.52;75.04;98440.97;1664135;86;21738;-65
2020/12/15 12:01:31;;;;;;;10.68;4.60;;;;;;;5.48;75.07;98440.34;1663908;86;21370;-65
2020/12/15 12:04:00;;;;;;;8.13;3.45;;;;;;;5.45;75.20;98441.80;1663331;85;21180;-65
2020/12/15 12:06:32;;;;;;;10.10;5.00;;;;;;;5.41;75.04;98443.41;1655415;85;21165;-65
2020/12/15 12:09:03;;;;;;;13.28;5.70;;;;;;;5.47;75.61;98444.29;1637342;87;21191;-65
2020/12/15 12:11:31;;;;;;;5.37;3.35;;;;;;;5.52;75.39;98446.95;1637158;87;21184;-65